sensor_id;sensor_type;location;lat;lon;timestamp;pressure;altitude;pressure_sealevel;temperature;humidity
9077;BME280;4574;51.072;17.174;2023-01-28T00:01:16;100854.56;;;2.74;100.00
9077;BME280;4574;51.072;17.174;2023-01-28T00:03:48;100862.91;;;2.80;100.00
9077;BME280;4574;51.072;17.174;2023-01-28T00:06:18;100860.53;;;2.76;100.00
9077;BME280;4574;51.072;17.174;2023-01-28T00:08:48;100850.84;;;2.63;100.00
9077;BME280;4574;51.072;17.174;2023-01-28T00:11:17;100859.00;;;2.72;100.00
9077;BME280;4574;51.072;17.174;2023-01-28T00:13:45;100867.78;;;2.71;100.00
9077;BME280;4574;51.072;17.174;2023-01-28T00:16:14;100861.19;;;2.64;100.00
9077;BME280;4574;51.072;17.174;2023-01-28T00:18:42;100845.47;;;2.49;100.00
9077;BME280;4574;51.072;17.174;2023-01-28T00:21:13;100851.72;;;2.46;100.00
9077;BME280;4574;51.072;17.174;2023-01-28T00:23:42;100860.22;;;2.50;100.00
9077;BME280;4574;51.072;17.174;2023-01-28T00:26:16;100857.00;;;2.45;100.00
9077;BME280;4574;51.072;17.174;2023-01-28T00:28:45;100847.75;;;2.39;100.00
9077;BME280;4574;51.072;17.174;2023-01-28T00:31:15;100859.22;;;2.52;100.00
9077;BME280;4574;51.072;17.174;2023-01-28T00:33:45;100853.91;;;2.54;100.00
9077;BME280;4574;51.072;17.174;2023-01-28T00:36:15;100847.75;;;2.39;100.00
9077;BME280;4574;51.072;17.174;2023-01-28T00:38:49;100856.78;;;2.49;100.00
9077;BME280;4574;51.072;17.174;2023-01-28T00:41:20;100851.56;;;2.49;100.00
9077;BME280;4574;51.072;17.174;2023-01-28T00:43:49;100853.09;;;2.53;100.00
9077;BME280;4574;51.072;17.174;2023-01-28T00:46:19;100857.22;;;2.57;100.00
9077;BME280;4574;51.072;17.174;2023-01-28T00:48:48;100853.63;;;2.60;100.00
9077;BME280;4574;51.072;17.174;2023-01-28T00:51:18;100852.75;;;2.59;100.00
9077;BME280;4574;51.072;17.174;2023-01-28T00:53:47;100853.63;;;2.60;100.00
9077;BME280;4574;51.072;17.174;2023-01-28T00:56:17;100844.00;;;2.60;100.00
9077;BME280;4574;51.072;17.174;2023-01-28T00:58:47;100850.84;;;2.63;100.00
9077;BME280;4574;51.072;17.174;2023-01-28T01:01:17;100845.50;;;2.64;100.00
9077;BME280;4574;51.072;17.174;2023-01-28T01:03:46;100831.19;;;2.56;100.00
9077;BME280;4574;51.072;17.174;2023-01-28T01:06:20;100847.97;;;2.67;100.00
9077;BME280;4574;51.072;17.174;2023-01-28T01:08:48;100850.50;;;2.68;100.00
9077;BME280;4574;51.072;17.174;2023-01-28T01:11:17;100846.13;;;2.69;100.00
9077;BME280;4574;51.072;17.174;2023-01-28T01:13:51;100846.97;;;2.69;100.00
9077;BME280;4574;51.072;17.174;2023-01-28T01:16:21;100852.38;;;2.66;100.00
9077;BME280;4574;51.072;17.174;2023-01-28T01:18:51;100860.88;;;2.70;100.00
9077;BME280;4574;51.072;17.174;2023-01-28T01:21:21;100859.13;;;2.70;100.00
9077;BME280;4574;51.072;17.174;2023-01-28T01:23:51;100849.81;;;2.65;100.00
9077;BME280;4574;51.072;17.174;2023-01-28T01:26:21;100871.25;;;2.71;100.00
9077;BME280;4574;51.072;17.174;2023-01-28T01:28:51;100872.09;;;2.72;100.00
9077;BME280;4574;51.072;17.174;2023-01-28T01:31:20;100872.50;;;2.64;100.00
9077;BME280;4574;51.072;17.174;2023-01-28T01:33:50;100869.91;;;2.64;100.00
9077;BME280;4574;51.072;17.174;2023-01-28T01:36:19;100863.81;;;2.64;100.00
9077;BME280;4574;51.072;17.174;2023-01-28T01:38:52;100875.19;;;2.63;100.00
9077;BME280;4574;51.072;17.174;2023-01-28T01:41:24;100871.91;;;2.60;100.00
9077;BME280;4574;51.072;17.174;2023-01-28T01:43:56;100885.19;;;2.55;100.00
9077;BME280;4574;51.072;17.174;2023-01-28T01:46:32;100882.59;;;2.55;100.00
9077;BME280;4574;51.072;17.174;2023-01-28T01:49:06;100898.25;;;2.55;100.00
9077;BME280;4574;51.072;17.174;2023-01-28T01:51:39;100890.44;;;2.55;100.00
9077;BME280;4574;51.072;17.174;2023-01-28T01:54:08;100870.94;;;2.45;100.00
9077;BME280;4574;51.072;17.174;2023-01-28T01:56:39;100886.50;;;2.47;100.00
9077;BME280;4574;51.072;17.174;2023-01-28T01:59:16;100894.59;;;2.42;100.00
9077;BME280;4574;51.072;17.174;2023-01-28T02:01:46;100900.75;;;2.41;100.00
9077;BME280;4574;51.072;17.174;2023-01-28T02:04:19;100903.44;;;2.40;100.00
9077;BME280;4574;51.072;17.174;2023-01-28T02:06:50;100900.00;;;2.39;100.00
9077;BME280;4574;51.072;17.174;2023-01-28T02:09:23;100908.75;;;2.38;100.00
9077;BME280;4574;51.072;17.174;2023-01-28T02:11:54;100888.38;;;2.28;100.00
9077;BME280;4574;51.072;17.174;2023-01-28T02:14:27;100903.44;;;2.40;100.00
9077;BME280;4574;51.072;17.174;2023-01-28T02:16:58;100906.91;;;2.40;100.00
9077;BME280;4574;51.072;17.174;2023-01-28T02:19:33;100912.13;;;2.40;100.00
9077;BME280;4574;51.072;17.174;2023-01-28T02:22:54;100916.44;;;2.41;100.00
9077;BME280;4574;51.072;17.174;2023-01-28T02:25:36;100911.97;;;2.43;100.00
9077;BME280;4574;51.072;17.174;2023-01-28T02:28:22;100904.03;;;2.45;100.00
9077;BME280;4574;51.072;17.174;2023-01-28T02:30:57;100900.91;;;2.38;100.00
9077;BME280;4574;51.072;17.174;2023-01-28T02:33:33;100914.75;;;2.40;100.00
9077;BME280;4574;51.072;17.174;2023-01-28T02:36:11;100910.59;;;2.36;100.00
9077;BME280;4574;51.072;17.174;2023-01-28T02:38:46;100911.56;;;2.34;100.00
9077;BME280;4574;51.072;17.174;2023-01-28T02:41:22;100920.81;;;2.24;100.00
9077;BME280;4574;51.072;17.174;2023-01-28T02:43:53;100907.44;;;2.30;100.00
9077;BME280;4574;51.072;17.174;2023-01-28T02:46:34;100909.06;;;2.32;100.00
9077;BME280;4574;51.072;17.174;2023-01-28T02:49:24;100903.84;;;2.32;100.00
9077;BME280;4574;51.072;17.174;2023-01-28T02:52:05;100909.72;;;2.36;100.00
9077;BME280;4574;51.072;17.174;2023-01-28T02:54:42;100912.44;;;2.34;100.00
9077;BME280;4574;51.072;17.174;2023-01-28T02:57:20;100912.59;;;2.31;100.00
9077;BME280;4574;51.072;17.174;2023-01-28T03:00:00;100904.59;;;2.34;100.00
9077;BME280;4574;51.072;17.174;2023-01-28T03:02:34;100914.03;;;2.37;100.00
9077;BME280;4574;51.072;17.174;2023-01-28T03:05:07;100915.13;;;2.33;100.00
9077;BME280;4574;51.072;17.174;2023-01-28T03:07:39;100912.44;;;2.34;100.00
9077;BME280;4574;51.072;17.174;2023-01-28T03:10:11;100911.69;;;2.32;100.00
9077;BME280;4574;51.072;17.174;2023-01-28T03:12:43;100909.22;;;2.29;100.00
9077;BME280;4574;51.072;17.174;2023-01-28T03:15:34;100909.22;;;2.29;100.00
9077;BME280;4574;51.072;17.174;2023-01-28T03:18:26;100917.88;;;2.30;100.00
9077;BME280;4574;51.072;17.174;2023-01-28T03:21:16;100917.06;;;2.29;100.00
9077;BME280;4574;51.072;17.174;2023-01-28T03:24:08;100925.81;;;2.11;100.00
9077;BME280;4574;51.072;17.174;2023-01-28T03:26:58;100925.06;;;2.09;100.00
9077;BME280;4574;51.072;17.174;2023-01-28T03:29:49;100924.91;;;2.12;100.00
9077;BME280;4574;51.072;17.174;2023-01-28T03:32:38;100910.47;;;2.05;100.00
9077;BME280;4574;51.072;17.174;2023-01-28T03:35:27;100912.91;;;2.08;100.00
9077;BME280;4574;51.072;17.174;2023-01-28T03:38:15;100917.53;;;2.03;100.00
9077;BME280;4574;51.072;17.174;2023-01-28T03:40:50;100916.50;;;2.06;100.00
9077;BME280;4574;51.072;17.174;2023-01-28T03:43:19;100905.16;;;2.07;100.00
9077;BME280;4574;51.072;17.174;2023-01-28T03:45:47;100911.06;;;2.10;100.00
9077;BME280;4574;51.072;17.174;2023-01-28T03:48:19;100910.16;;;2.11;100.00
9077;BME280;4574;51.072;17.174;2023-01-28T03:50:48;100897.25;;;1.91;100.00
9077;BME280;4574;51.072;17.174;2023-01-28T03:53:18;100917.69;;;2.00;100.00
9077;BME280;4574;51.072;17.174;2023-01-28T03:55:48;100925.34;;;2.03;100.00
9077;BME280;4574;51.072;17.174;2023-01-28T03:58:18;100923.66;;;2.02;100.00
9077;BME280;4574;51.072;17.174;2023-01-28T04:00:46;100931.34;;;2.05;100.00
9077;BME280;4574;51.072;17.174;2023-01-28T04:03:18;100921.22;;;1.99;100.00
9077;BME280;4574;51.072;17.174;2023-01-28T04:05:57;100926.13;;;2.05;100.00
9077;BME280;4574;51.072;17.174;2023-01-28T04:08:26;100901.69;;;1.89;100.00
9077;BME280;4574;51.072;17.174;2023-01-28T04:10:55;100934.72;;;2.07;100.00
9077;BME280;4574;51.072;17.174;2023-01-28T04:13:24;100928.88;;;2.02;100.00
9077;BME280;4574;51.072;17.174;2023-01-28T04:15:52;100910.00;;;1.80;100.00
9077;BME280;4574;51.072;17.174;2023-01-28T04:18:22;100929.56;;;1.89;100.00
9077;BME280;4574;51.072;17.174;2023-01-28T04:20:53;100938.00;;;1.94;100.00
9077;BME280;4574;51.072;17.174;2023-01-28T04:23:22;100935.00;;;1.84;100.00
9077;BME280;4574;51.072;17.174;2023-01-28T04:25:50;100925.03;;;1.92;100.00
9077;BME280;4574;51.072;17.174;2023-01-28T04:28:19;100928.44;;;1.94;100.00
9077;BME280;4574;51.072;17.174;2023-01-28T04:30:47;100930.31;;;1.91;100.00
9077;BME280;4574;51.072;17.174;2023-01-28T04:33:16;100936.22;;;1.77;100.00
9077;BME280;4574;51.072;17.174;2023-01-28T04:35:46;100932.31;;;1.86;100.00
9077;BME280;4574;51.072;17.174;2023-01-28T04:38:14;100940.28;;;1.83;100.00
9077;BME280;4574;51.072;17.174;2023-01-28T04:40:43;100942.00;;;1.84;100.00
9077;BME280;4574;51.072;17.174;2023-01-28T04:43:11;100946.13;;;1.88;100.00
9077;BME280;4574;51.072;17.174;2023-01-28T04:45:39;100947.78;;;1.90;100.00
9077;BME280;4574;51.072;17.174;2023-01-28T04:48:08;100951.16;;;1.92;100.00
9077;BME280;4574;51.072;17.174;2023-01-28T04:50:36;100957.00;;;1.97;100.00
9077;BME280;4574;51.072;17.174;2023-01-28T04:53:06;100949.31;;;1.94;100.00
9077;BME280;4574;51.072;17.174;2023-01-28T04:55:35;100947.47;;;1.96;100.00
9077;BME280;4574;51.072;17.174;2023-01-28T04:58:04;100953.22;;;2.03;100.00
9077;BME280;4574;51.072;17.174;2023-01-28T05:00:32;100953.75;;;1.92;100.00
9077;BME280;4574;51.072;17.174;2023-01-28T05:03:01;100958.06;;;1.93;100.00
9077;BME280;4574;51.072;17.174;2023-01-28T05:05:29;100962.94;;;1.82;100.00
9077;BME280;4574;51.072;17.174;2023-01-28T05:07:58;100965.28;;;1.88;100.00
9077;BME280;4574;51.072;17.174;2023-01-28T05:10:28;100965.28;;;1.88;100.00
9077;BME280;4574;51.072;17.174;2023-01-28T05:12:56;100962.66;;;1.88;100.00
9077;BME280;4574;51.072;17.174;2023-01-28T05:15:24;100963.44;;;1.90;100.00
9077;BME280;4574;51.072;17.174;2023-01-28T05:17:54;100958.22;;;1.90;100.00
9077;BME280;4574;51.072;17.174;2023-01-28T05:20:23;100966.97;;;1.89;100.00
9077;BME280;4574;51.072;17.174;2023-01-28T05:22:51;100968.34;;;1.96;100.00
9077;BME280;4574;51.072;17.174;2023-01-28T05:25:20;100968.34;;;1.96;100.00
9077;BME280;4574;51.072;17.174;2023-01-28T05:27:50;100963.56;;;1.87;100.00
9077;BME280;4574;51.072;17.174;2023-01-28T05:30:20;100973.56;;;1.96;100.00
9077;BME280;4574;51.072;17.174;2023-01-28T05:32:48;100977.84;;;1.80;100.00
9077;BME280;4574;51.072;17.174;2023-01-28T05:35:17;100983.00;;;1.63;100.00
9077;BME280;4574;51.072;17.174;2023-01-28T05:37:45;100983.00;;;1.63;100.00
9077;BME280;4574;51.072;17.174;2023-01-28T05:40:14;100987.03;;;1.52;100.00
9077;BME280;4574;51.072;17.174;2023-01-28T05:42:43;100985.06;;;1.57;100.00
9077;BME280;4574;51.072;17.174;2023-01-28T05:45:13;100974.81;;;1.52;100.00
9077;BME280;4574;51.072;17.174;2023-01-28T05:47:43;100986.03;;;1.54;100.00
9077;BME280;4574;51.072;17.174;2023-01-28T05:50:13;100986.03;;;1.54;100.00
9077;BME280;4574;51.072;17.174;2023-01-28T05:52:42;100975.75;;;1.51;100.00
9077;BME280;4574;51.072;17.174;2023-01-28T05:55:11;100982.72;;;1.32;100.00
9077;BME280;4574;51.072;17.174;2023-01-28T05:57:39;100992.25;;;1.33;100.00
9077;BME280;4574;51.072;17.174;2023-01-28T06:00:09;100981.53;;;1.39;100.00
9077;BME280;4574;51.072;17.174;2023-01-28T06:02:39;100980.56;;;1.42;100.00
9077;BME280;4574;51.072;17.174;2023-01-28T06:05:09;100978.28;;;1.53;100.00
9077;BME280;4574;51.072;17.174;2023-01-28T06:07:37;100992.03;;;1.56;100.00
9077;BME280;4574;51.072;17.174;2023-01-28T06:10:07;100988.00;;;1.49;100.00
9077;BME280;4574;51.072;17.174;2023-01-28T06:12:35;100985.34;;;1.51;100.00
9077;BME280;4574;51.072;17.174;2023-01-28T06:15:04;100987.31;;;1.46;100.00
9077;BME280;4574;51.072;17.174;2023-01-28T06:17:33;100981.38;;;1.42;100.00
9077;BME280;4574;51.072;17.174;2023-01-28T06:20:03;100991.81;;;1.42;100.00
9077;BME280;4574;51.072;17.174;2023-01-28T06:22:32;101001.81;;;1.51;100.00
9077;BME280;4574;51.072;17.174;2023-01-28T06:25:00;101001.06;;;1.49;100.00
9077;BME280;4574;51.072;17.174;2023-01-28T06:27:29;100982.25;;;1.43;100.00
9077;BME280;4574;51.072;17.174;2023-01-28T06:29:57;101003.66;;;1.49;100.00
9077;BME280;4574;51.072;17.174;2023-01-28T06:32:26;101007.63;;;1.58;100.00
9077;BME280;4574;51.072;17.174;2023-01-28T06:34:54;101005.94;;;1.57;100.00
9077;BME280;4574;51.072;17.174;2023-01-28T06:37:24;101009.38;;;1.57;100.00
9077;BME280;4574;51.072;17.174;2023-01-28T06:39:53;101014.72;;;1.54;100.00
9077;BME280;4574;51.072;17.174;2023-01-28T06:42:22;101012.25;;;1.51;100.00
9077;BME280;4574;51.072;17.174;2023-01-28T06:44:50;101008.75;;;1.34;100.00
9077;BME280;4574;51.072;17.174;2023-01-28T06:47:19;101025.41;;;1.50;100.00
9077;BME280;4574;51.072;17.174;2023-01-28T06:49:47;101019.81;;;1.57;100.00
9077;BME280;4574;51.072;17.174;2023-01-28T06:52:16;101023.97;;;1.61;100.00
9077;BME280;4574;51.072;17.174;2023-01-28T06:54:45;101025.03;;;1.57;100.00
9077;BME280;4574;51.072;17.174;2023-01-28T06:57:14;101030.75;;;1.47;100.00
9077;BME280;4574;51.072;17.174;2023-01-28T06:59:42;101032.63;;;1.43;100.00
9077;BME280;4574;51.072;17.174;2023-01-28T07:02:11;101038.44;;;1.50;100.00
9077;BME280;4574;51.072;17.174;2023-01-28T07:04:39;101026.63;;;1.41;100.00
9077;BME280;4574;51.072;17.174;2023-01-28T07:07:08;101042.78;;;1.49;100.00
9077;BME280;4574;51.072;17.174;2023-01-28T07:09:36;101046.91;;;1.55;100.00
9077;BME280;4574;51.072;17.174;2023-01-28T07:12:06;101043.91;;;1.62;100.00
9077;BME280;4574;51.072;17.174;2023-01-28T07:14:34;101059.56;;;1.62;100.00
9077;BME280;4574;51.072;17.174;2023-01-28T07:17:03;101060.28;;;1.66;100.00
9077;BME280;4574;51.072;17.174;2023-01-28T07:19:31;101066.09;;;1.72;100.00
9077;BME280;4574;51.072;17.174;2023-01-28T07:22:00;101063.59;;;1.69;100.00
9077;BME280;4574;51.072;17.174;2023-01-28T07:24:29;101067.34;;;1.64;100.00
9077;BME280;4574;51.072;17.174;2023-01-28T07:26:57;101069.22;;;1.60;100.00
9077;BME280;4574;51.072;17.174;2023-01-28T07:29:27;101076.16;;;1.61;100.00
9077;BME280;4574;51.072;17.174;2023-01-28T07:31:56;101057.38;;;1.53;100.00
9077;BME280;4574;51.072;17.174;2023-01-28T07:34:24;101062.47;;;1.56;100.00
9077;BME280;4574;51.072;17.174;2023-01-28T07:36:53;101069.81;;;1.67;100.00
9077;BME280;4574;51.072;17.174;2023-01-28T07:39:25;101074.88;;;1.51;100.00
9077;BME280;4574;51.072;17.174;2023-01-28T07:41:54;101080.66;;;1.58;100.00
9077;BME280;4574;51.072;17.174;2023-01-28T07:44:23;101079.13;;;1.54;100.00
9077;BME280;4574;51.072;17.174;2023-01-28T07:46:53;101072.97;;;1.55;100.00
9077;BME280;4574;51.072;17.174;2023-01-28T07:49:21;101070.50;;;1.52;100.00
9077;BME280;4574;51.072;17.174;2023-01-28T07:51:50;101049.19;;;1.42;100.00
9077;BME280;4574;51.072;17.174;2023-01-28T07:54:18;101064.22;;;1.37;100.00
9077;BME280;4574;51.072;17.174;2023-01-28T07:56:47;101058.84;;;1.40;100.00
9077;BME280;4574;51.072;17.174;2023-01-28T07:59:15;101065.00;;;1.39;100.00
9077;BME280;4574;51.072;17.174;2023-01-28T08:01:44;101072.91;;;1.38;100.00
9077;BME280;4574;51.072;17.174;2023-01-28T08:04:14;101075.16;;;1.45;100.00
9077;BME280;4574;51.072;17.174;2023-01-28T08:06:43;101061.88;;;1.31;100.00
9077;BME280;4574;51.072;17.174;2023-01-28T08:09:11;101082.06;;;1.46;100.00
9077;BME280;4574;51.072;17.174;2023-01-28T08:11:40;101076.16;;;1.61;100.00
9077;BME280;4574;51.072;17.174;2023-01-28T08:14:09;101074.91;;;1.31;100.00
9077;BME280;4574;51.072;17.174;2023-01-28T08:16:37;101082.47;;;1.37;100.00
9077;BME280;4574;51.072;17.174;2023-01-28T08:19:06;101083.19;;;1.41;100.00
9077;BME280;4574;51.072;17.174;2023-01-28T08:21:36;101083.88;;;1.44;100.00
9077;BME280;4574;51.072;17.174;2023-01-28T08:24:05;101084.94;;;1.40;100.00
9077;BME280;4574;51.072;17.174;2023-01-28T08:26:34;101093.72;;;1.20;100.00
9077;BME280;4574;51.072;17.174;2023-01-28T08:29:02;101087.41;;;1.25;100.00
9077;BME280;4574;51.072;17.174;2023-01-28T08:31:31;101095.28;;;1.24;100.00
9077;BME280;4574;51.072;17.174;2023-01-28T08:34:00;101089.22;;;1.23;100.00
9077;BME280;4574;51.072;17.174;2023-01-28T08:36:28;101089.69;;;1.13;100.00
9077;BME280;4574;51.072;17.174;2023-01-28T08:38:58;101080.16;;;1.12;100.00
9077;BME280;4574;51.072;17.174;2023-01-28T08:41:26;101098.78;;;1.23;100.00
9077;BME280;4574;51.072;17.174;2023-01-28T08:43:55;101093.16;;;1.13;100.00
9077;BME280;4574;51.072;17.174;2023-01-28T08:46:23;101086.81;;;1.19;100.00
9077;BME280;4574;51.072;17.174;2023-01-28T08:48:52;101090.59;;;1.12;100.00
9077;BME280;4574;51.072;17.174;2023-01-28T08:51:20;101091.31;;;1.15;100.00
9077;BME280;4574;51.072;17.174;2023-01-28T08:53:49;101096.06;;;1.26;100.00
9077;BME280;4574;51.072;17.174;2023-01-28T08:56:19;101098.13;;;1.37;100.00
9077;BME280;4574;51.072;17.174;2023-01-28T08:58:48;101101.72;;;1.35;100.00
9077;BME280;4574;51.072;17.174;2023-01-28T09:01:16;101097.81;;;1.25;100.00
9077;BME280;4574;51.072;17.174;2023-01-28T09:03:45;101088.75;;;1.14;100.00
9077;BME280;4574;51.072;17.174;2023-01-28T09:06:13;101109.44;;;1.18;100.00
9077;BME280;4574;51.072;17.174;2023-01-28T09:08:42;101104.88;;;1.23;100.00
9077;BME280;4574;51.072;17.174;2023-01-28T09:11:10;101092.16;;;1.16;100.00
9077;BME280;4574;51.072;17.174;2023-01-28T09:13:40;101095.50;;;1.19;100.00
9077;BME280;4574;51.072;17.174;2023-01-28T09:16:09;101103.44;;;1.16;100.00
9077;BME280;4574;51.072;17.174;2023-01-28T09:18:38;101105.84;;;1.21;100.00
9077;BME280;4574;51.072;17.174;2023-01-28T09:21:07;101111.50;;;1.30;100.00
9077;BME280;4574;51.072;17.174;2023-01-28T09:23:36;101114.81;;;1.33;100.00
9077;BME280;4574;51.072;17.174;2023-01-28T09:26:05;101110.47;;;1.34;100.00
9077;BME280;4574;51.072;17.174;2023-01-28T09:28:35;101122.22;;;1.24;100.00
9077;BME280;4574;51.072;17.174;2023-01-28T09:31:07;101119.53;;;1.26;100.00
9077;BME280;4574;51.072;17.174;2023-01-28T09:33:37;101119.38;;;1.28;100.00
9077;BME280;4574;51.072;17.174;2023-01-28T09:36:09;101120.13;;;1.32;100.00
9077;BME280;4574;51.072;17.174;2023-01-28T09:38:38;101126.16;;;1.32;100.00
9077;BME280;4574;51.072;17.174;2023-01-28T09:41:25;101128.06;;;1.29;100.00
9077;BME280;4574;51.072;17.174;2023-01-28T09:44:05;101133.72;;;1.38;100.00
9077;BME280;4574;51.072;17.174;2023-01-28T09:46:43;101135.50;;;1.38;100.00
9077;BME280;4574;51.072;17.174;2023-01-28T09:49:19;101126.97;;;1.15;100.00
9077;BME280;4574;51.072;17.174;2023-01-28T09:51:51;101132.97;;;0.97;100.00
9077;BME280;4574;51.072;17.174;2023-01-28T09:54:29;101133.69;;;1.00;100.00
9077;BME280;4574;51.072;17.174;2023-01-28T09:57:05;101130.75;;;1.08;100.00
9077;BME280;4574;51.072;17.174;2023-01-28T09:59:35;101125.13;;;1.17;100.00
9077;BME280;4574;51.072;17.174;2023-01-28T10:05:13;101130.69;;;1.29;100.00
9077;BME280;4574;51.072;17.174;2023-01-28T10:07:51;101134.38;;;1.24;100.00
9077;BME280;4574;51.072;17.174;2023-01-28T10:10:27;101137.22;;;1.19;100.00
9077;BME280;4574;51.072;17.174;2023-01-28T10:13:15;101129.97;;;1.06;100.00
9077;BME280;4574;51.072;17.174;2023-01-28T10:16:02;101127.97;;;1.12;100.00
9077;BME280;4574;51.072;17.174;2023-01-28T10:18:38;101132.44;;;1.09;100.00
9077;BME280;4574;51.072;17.174;2023-01-28T10:21:13;101126.06;;;0.96;100.00
9077;BME280;4574;51.072;17.174;2023-01-28T10:23:49;101130.44;;;0.95;100.00
9077;BME280;4574;51.072;17.174;2023-01-28T10:26:22;101127.31;;;1.07;100.00
9077;BME280;4574;51.072;17.174;2023-01-28T10:28:55;101120.19;;;1.11;100.00
9077;BME280;4574;51.072;17.174;2023-01-28T10:31:30;101123.78;;;1.08;100.00
9077;BME280;4574;51.072;17.174;2023-01-28T10:34:01;101130.88;;;1.05;100.00
9077;BME280;4574;51.072;17.174;2023-01-28T10:36:30;101119.47;;;1.07;100.00
9077;BME280;4574;51.072;17.174;2023-01-28T10:38:59;101129.84;;;1.09;100.00
9077;BME280;4574;51.072;17.174;2023-01-28T10:41:27;101125.25;;;1.14;100.00
9077;BME280;4574;51.072;17.174;2023-01-28T10:43:56;101133.03;;;1.15;100.00
9077;BME280;4574;51.072;17.174;2023-01-28T10:46:28;101130.22;;;1.20;100.00
9077;BME280;4574;51.072;17.174;2023-01-28T10:49:03;101124.75;;;1.06;100.00
9077;BME280;4574;51.072;17.174;2023-01-28T10:51:35;101133.94;;;0.94;100.00
9077;BME280;4574;51.072;17.174;2023-01-28T10:54:17;101125.53;;;1.66;100.00
9077;BME280;4574;51.072;17.174;2023-01-28T10:56:46;101123.03;;;1.25;100.00
9077;BME280;4574;51.072;17.174;2023-01-28T10:59:22;101124.88;;;1.23;100.00
9077;BME280;4574;51.072;17.174;2023-01-28T11:01:54;101125.13;;;1.17;100.00
9077;BME280;4574;51.072;17.174;2023-01-28T11:04:27;101123.00;;;1.06;100.00
9077;BME280;4574;51.072;17.174;2023-01-28T11:06:59;101132.81;;;1.20;100.00
9077;BME280;4574;51.072;17.174;2023-01-28T11:09:29;101134.59;;;1.19;100.00
9077;BME280;4574;51.072;17.174;2023-01-28T11:12:09;101124.44;;;1.13;100.00
9077;BME280;4574;51.072;17.174;2023-01-28T11:14:48;101135.69;;;1.14;100.00
9077;BME280;4574;51.072;17.174;2023-01-28T11:17:18;101119.75;;;1.01;100.00
9077;BME280;4574;51.072;17.174;2023-01-28T11:19:49;101128.22;;;1.06;100.00
9077;BME280;4574;51.072;17.174;2023-01-28T11:22:23;101125.25;;;1.14;100.00
9077;BME280;4574;51.072;17.174;2023-01-28T11:24:55;101127.22;;;1.09;100.00
9077;BME280;4574;51.072;17.174;2023-01-28T11:27:27;101115.38;;;1.02;100.00
9077;BME280;4574;51.072;17.174;2023-01-28T11:29:57;101125.91;;;0.99;100.00
9077;BME280;4574;51.072;17.174;2023-01-28T11:32:29;101122.53;;;0.97;100.00
9077;BME280;4574;51.072;17.174;2023-01-28T11:34:59;101124.75;;;0.86;100.00
9077;BME280;4574;51.072;17.174;2023-01-28T11:37:28;101120.41;;;0.86;100.00
9077;BME280;4574;51.072;17.174;2023-01-28T11:40:14;101127.22;;;0.89;100.00
9077;BME280;4574;51.072;17.174;2023-01-28T11:42:49;101127.81;;;0.95;100.00
9077;BME280;4574;51.072;17.174;2023-01-28T11:45:21;101131.13;;;0.99;100.00
9077;BME280;4574;51.072;17.174;2023-01-28T11:48:06;101130.88;;;1.05;100.00
9077;BME280;4574;51.072;17.174;2023-01-28T11:50:45;101130.63;;;1.11;100.00
9077;BME280;4574;51.072;17.174;2023-01-28T11:53:29;101113.59;;;0.82;100.00
9077;BME280;4574;51.072;17.174;2023-01-28T11:56:24;101126.69;;;1.01;100.00
9077;BME280;4574;51.072;17.174;2023-01-28T11:59:03;101125.59;;;0.86;100.00
9077;BME280;4574;51.072;17.174;2023-01-28T12:01:39;101113.78;;;0.78;100.00
9077;BME280;4574;51.072;17.174;2023-01-28T12:04:19;101132.16;;;0.75;100.00
9077;BME280;4574;51.072;17.174;2023-01-28T12:07:12;101115.00;;;0.69;100.00
9077;BME280;4574;51.072;17.174;2023-01-28T12:09:52;101108.84;;;0.72;100.00
9077;BME280;4574;51.072;17.174;2023-01-28T12:12:41;101118.47;;;0.70;100.00
9077;BME280;4574;51.072;17.174;2023-01-28T12:15:30;101131.00;;;0.82;100.00
9077;BME280;4574;51.072;17.174;2023-01-28T12:18:14;101119.13;;;0.75;100.00
9077;BME280;4574;51.072;17.174;2023-01-28T12:20:53;101121.34;;;0.84;100.00
9077;BME280;4574;51.072;17.174;2023-01-28T12:23:37;101122.53;;;0.77;100.00
9077;BME280;4574;51.072;17.174;2023-01-28T12:26:14;101128.22;;;0.86;100.00
9077;BME280;4574;51.072;17.174;2023-01-28T12:28:54;101122.16;;;1.06;100.00
9077;BME280;4574;51.072;17.174;2023-01-28T12:31:46;101121.19;;;1.08;100.00
9077;BME280;4574;51.072;17.174;2023-01-28T12:34:42;101123.69;;;0.90;100.00
9077;BME280;4574;51.072;17.174;2023-01-28T12:37:25;101125.00;;;0.80;100.00
9077;BME280;4574;51.072;17.174;2023-01-28T12:40:12;101107.53;;;0.62;100.00
9077;BME280;4574;51.072;17.174;2023-01-28T12:42:46;101127.66;;;0.78;100.00
9077;BME280;4574;51.072;17.174;2023-01-28T12:45:20;101111.44;;;0.72;100.00
9077;BME280;4574;51.072;17.174;2023-01-28T12:47:54;101118.97;;;0.58;100.00
9077;BME280;4574;51.072;17.174;2023-01-28T12:50:30;101124.31;;;0.55;100.00
9077;BME280;4574;51.072;17.174;2023-01-28T12:53:02;101130.97;;;0.62;100.00
9077;BME280;4574;51.072;17.174;2023-01-28T12:55:44;101138.44;;;0.69;100.00
9077;BME280;4574;51.072;17.174;2023-01-28T12:58:18;101129.34;;;0.79;100.00
9077;BME280;4574;51.072;17.174;2023-01-28T13:00:50;101131.00;;;0.60;100.00
9077;BME280;4574;51.072;17.174;2023-01-28T13:03:27;101142.47;;;0.56;100.00
9077;BME280;4574;51.072;17.174;2023-01-28T13:06:00;101130.47;;;0.52;100.00
9077;BME280;4574;51.072;17.174;2023-01-28T13:08:30;101147.44;;;0.62;100.00
9077;BME280;4574;51.072;17.174;2023-01-28T13:11:02;101147.63;;;0.58;100.00
9077;BME280;4574;51.072;17.174;2023-01-28T13:13:34;101141.28;;;0.43;100.00
9077;BME280;4574;51.072;17.174;2023-01-28T13:16:04;101134.19;;;0.47;100.00
9077;BME280;4574;51.072;17.174;2023-01-28T13:18:43;101132.06;;;0.56;100.00
9077;BME280;4574;51.072;17.174;2023-01-28T13:21:14;101145.28;;;0.52;100.00
9077;BME280;4574;51.072;17.174;2023-01-28T13:23:45;101142.00;;;0.47;100.00
9077;BME280;4574;51.072;17.174;2023-01-28T13:26:30;101143.13;;;0.61;100.00
9077;BME280;4574;51.072;17.174;2023-01-28T13:29:17;101141.25;;;0.65;100.00
9077;BME280;4574;51.072;17.174;2023-01-28T13:31:47;101136.75;;;0.68;100.00